sensor_id;sensor_type;location;lat;lon;timestamp;P1;durP1;ratioP1;P2;durP2;ratioP2
50301;SDS011;36550;50.472;19.744;2024-03-23T00:53:50;41.40;;;19.70;;
50301;SDS011;36550;50.472;19.744;2024-03-23T00:56:34;46.10;;;19.90;;
50301;SDS011;36550;50.472;19.744;2024-03-23T00:59:18;44.00;;;20.60;;
50301;SDS011;36550;50.472;19.744;2024-03-23T01:02:02;44.30;;;21.60;;
50301;SDS011;36550;50.472;19.744;2024-03-23T01:04:47;49.10;;;23.70;;
50301;SDS011;36550;50.472;19.744;2024-03-23T01:07:31;44.50;;;22.20;;
50301;SDS011;36550;50.472;19.744;2024-03-23T01:10:15;43.30;;;21.00;;
50301;SDS011;36550;50.472;19.744;2024-03-23T01:12:59;47.80;;;22.60;;
50301;SDS011;36550;50.472;19.744;2024-03-23T01:15:47;45.00;;;23.10;;
50301;SDS011;36550;50.472;19.744;2024-03-23T01:18:32;46.30;;;23.20;;
50301;SDS011;36550;50.472;19.744;2024-03-23T01:21:16;44.90;;;23.10;;
50301;SDS011;36550;50.472;19.744;2024-03-23T01:24:01;41.90;;;21.70;;
50301;SDS011;36550;50.472;19.744;2024-03-23T01:26:45;43.70;;;21.00;;
50301;SDS011;36550;50.472;19.744;2024-03-23T01:29:29;42.60;;;20.30;;
50301;SDS011;36550;50.472;19.744;2024-03-23T01:32:13;33.40;;;18.20;;
50301;SDS011;36550;50.472;19.744;2024-03-23T01:34:58;35.50;;;16.80;;
50301;SDS011;36550;50.472;19.744;2024-03-23T01:37:42;33.70;;;17.00;;
50301;SDS011;36550;50.472;19.744;2024-03-23T01:40:26;31.20;;;16.50;;
50301;SDS011;36550;50.472;19.744;2024-03-23T01:43:15;35.20;;;16.40;;
50301;SDS011;36550;50.472;19.744;2024-03-23T01:45:59;32.70;;;15.40;;
50301;SDS011;36550;50.472;19.744;2024-03-23T01:48:43;26.60;;;14.70;;
50301;SDS011;36550;50.472;19.744;2024-03-23T01:51:28;28.40;;;15.50;;
50301;SDS011;36550;50.472;19.744;2024-03-23T01:54:14;31.90;;;16.10;;
50301;SDS011;36550;50.472;19.744;2024-03-23T01:56:58;31.20;;;14.70;;
50301;SDS011;36550;50.472;19.744;2024-03-23T01:59:43;29.10;;;15.20;;
50301;SDS011;36550;50.472;19.744;2024-03-23T02:02:27;26.90;;;15.00;;
50301;SDS011;36550;50.472;19.744;2024-03-23T02:05:12;30.80;;;14.70;;
50301;SDS011;36550;50.472;19.744;2024-03-23T02:07:57;27.40;;;13.40;;
50301;SDS011;36550;50.472;19.744;2024-03-23T02:10:41;30.00;;;14.80;;
50301;SDS011;36550;50.472;19.744;2024-03-23T02:13:26;28.80;;;13.30;;
50301;SDS011;36550;50.472;19.744;2024-03-23T02:16:11;27.30;;;13.90;;
50301;SDS011;36550;50.472;19.744;2024-03-23T02:18:55;34.10;;;14.90;;
50301;SDS011;36550;50.472;19.744;2024-03-23T02:21:40;24.30;;;14.10;;
50301;SDS011;36550;50.472;19.744;2024-03-23T02:24:24;26.50;;;13.50;;
50301;SDS011;36550;50.472;19.744;2024-03-23T02:27:08;28.20;;;13.70;;
50301;SDS011;36550;50.472;19.744;2024-03-23T02:29:53;52.70;;;25.80;;
50301;SDS011;36550;50.472;19.744;2024-03-23T02:32:37;43.30;;;22.20;;
50301;SDS011;36550;50.472;19.744;2024-03-23T02:35:21;34.40;;;18.60;;
50301;SDS011;36550;50.472;19.744;2024-03-23T02:38:06;44.70;;;22.00;;
50301;SDS011;36550;50.472;19.744;2024-03-23T02:40:50;38.60;;;20.40;;
50301;SDS011;36550;50.472;19.744;2024-03-23T02:43:34;37.60;;;19.50;;
50301;SDS011;36550;50.472;19.744;2024-03-23T02:46:18;52.50;;;19.70;;
50301;SDS011;36550;50.472;19.744;2024-03-23T02:49:02;45.40;;;16.90;;
50301;SDS011;36550;50.472;19.744;2024-03-23T02:51:47;33.10;;;14.80;;
50301;SDS011;36550;50.472;19.744;2024-03-23T02:54:32;28.70;;;14.60;;
50301;SDS011;36550;50.472;19.744;2024-03-23T02:57:17;34.20;;;14.30;;
50301;SDS011;36550;50.472;19.744;2024-03-23T03:00:01;27.50;;;13.40;;
50301;SDS011;36550;50.472;19.744;2024-03-23T03:02:46;27.40;;;14.30;;
50301;SDS011;36550;50.472;19.744;2024-03-23T03:05:30;30.00;;;15.40;;
50301;SDS011;36550;50.472;19.744;2024-03-23T03:08:14;33.90;;;15.70;;
50301;SDS011;36550;50.472;19.744;2024-03-23T03:10:58;32.30;;;15.70;;
50301;SDS011;36550;50.472;19.744;2024-03-23T03:13:42;34.30;;;17.00;;
50301;SDS011;36550;50.472;19.744;2024-03-23T03:16:26;33.70;;;17.00;;
50301;SDS011;36550;50.472;19.744;2024-03-23T03:19:11;33.40;;;16.60;;
50301;SDS011;36550;50.472;19.744;2024-03-23T03:21:55;33.30;;;16.80;;
50301;SDS011;36550;50.472;19.744;2024-03-23T03:24:39;38.80;;;19.60;;
50301;SDS011;36550;50.472;19.744;2024-03-23T03:27:23;39.70;;;20.60;;
50301;SDS011;36550;50.472;19.744;2024-03-23T03:30:08;39.20;;;21.60;;
50301;SDS011;36550;50.472;19.744;2024-03-23T03:32:53;41.20;;;20.60;;
50301;SDS011;36550;50.472;19.744;2024-03-23T03:35:38;43.20;;;21.40;;
50301;SDS011;36550;50.472;19.744;2024-03-23T03:38:23;36.50;;;19.30;;
50301;SDS011;36550;50.472;19.744;2024-03-23T03:41:07;35.70;;;19.30;;
50301;SDS011;36550;50.472;19.744;2024-03-23T03:43:52;37.00;;;19.10;;
50301;SDS011;36550;50.472;19.744;2024-03-23T03:46:36;36.40;;;17.30;;
50301;SDS011;36550;50.472;19.744;2024-03-23T03:49:20;32.90;;;17.20;;
50301;SDS011;36550;50.472;19.744;2024-03-23T03:52:04;37.20;;;18.30;;
50301;SDS011;36550;50.472;19.744;2024-03-23T03:54:48;35.00;;;19.00;;
50301;SDS011;36550;50.472;19.744;2024-03-23T03:57:33;36.10;;;19.30;;
50301;SDS011;36550;50.472;19.744;2024-03-23T04:00:17;38.50;;;20.40;;
50301;SDS011;36550;50.472;19.744;2024-03-23T04:03:02;41.50;;;19.60;;
50301;SDS011;36550;50.472;19.744;2024-03-23T04:05:53;37.60;;;20.00;;
50301;SDS011;36550;50.472;19.744;2024-03-23T04:08:37;41.00;;;21.00;;
50301;SDS011;36550;50.472;19.744;2024-03-23T04:11:22;39.50;;;22.00;;
50301;SDS011;36550;50.472;19.744;2024-03-23T04:14:06;41.40;;;20.90;;
50301;SDS011;36550;50.472;19.744;2024-03-23T04:16:50;41.20;;;21.60;;
50301;SDS011;36550;50.472;19.744;2024-03-23T04:19:34;38.30;;;19.50;;
50301;SDS011;36550;50.472;19.744;2024-03-23T04:22:18;33.90;;;18.60;;
50301;SDS011;36550;50.472;19.744;2024-03-23T04:25:03;36.70;;;18.30;;
50301;SDS011;36550;50.472;19.744;2024-03-23T04:27:50;36.80;;;18.30;;
50301;SDS011;36550;50.472;19.744;2024-03-23T04:30:35;36.40;;;19.70;;
50301;SDS011;36550;50.472;19.744;2024-03-23T04:33:19;50.90;;;23.10;;
50301;SDS011;36550;50.472;19.744;2024-03-23T04:36:04;51.10;;;23.40;;
50301;SDS011;36550;50.472;19.744;2024-03-23T04:38:48;52.30;;;22.70;;
50301;SDS011;36550;50.472;19.744;2024-03-23T04:41:34;48.40;;;23.70;;
50301;SDS011;36550;50.472;19.744;2024-03-23T04:44:19;49.80;;;22.70;;
50301;SDS011;36550;50.472;19.744;2024-03-23T04:47:03;43.60;;;21.10;;
50301;SDS011;36550;50.472;19.744;2024-03-23T04:52:33;42.50;;;20.60;;
50301;SDS011;36550;50.472;19.744;2024-03-23T04:55:17;39.00;;;20.90;;
50301;SDS011;36550;50.472;19.744;2024-03-23T04:58:01;43.40;;;21.30;;
50301;SDS011;36550;50.472;19.744;2024-03-23T05:00:45;39.70;;;20.10;;
50301;SDS011;36550;50.472;19.744;2024-03-23T05:03:29;43.20;;;21.60;;
50301;SDS011;36550;50.472;19.744;2024-03-23T05:06:14;41.50;;;20.40;;
50301;SDS011;36550;50.472;19.744;2024-03-23T05:08:58;39.00;;;19.90;;
50301;SDS011;36550;50.472;19.744;2024-03-23T05:11:42;39.90;;;20.20;;
50301;SDS011;36550;50.472;19.744;2024-03-23T05:14:26;43.30;;;20.30;;
50301;SDS011;36550;50.472;19.744;2024-03-23T05:17:11;34.10;;;19.20;;
50301;SDS011;36550;50.472;19.744;2024-03-23T05:19:55;37.40;;;19.20;;
50301;SDS011;36550;50.472;19.744;2024-03-23T05:22:39;46.50;;;21.00;;
50301;SDS011;36550;50.472;19.744;2024-03-23T05:25:23;40.40;;;20.50;;
50301;SDS011;36550;50.472;19.744;2024-03-23T05:28:07;40.40;;;20.00;;
50301;SDS011;36550;50.472;19.744;2024-03-23T05:30:55;43.50;;;21.50;;
50301;SDS011;36550;50.472;19.744;2024-03-23T05:33:40;39.20;;;20.70;;
50301;SDS011;36550;50.472;19.744;2024-03-23T05:36:24;37.70;;;20.40;;
50301;SDS011;36550;50.472;19.744;2024-03-23T05:39:08;40.10;;;21.70;;
50301;SDS011;36550;50.472;19.744;2024-03-23T05:41:53;41.10;;;21.30;;
50301;SDS011;36550;50.472;19.744;2024-03-23T05:44:37;40.30;;;21.90;;
50301;SDS011;36550;50.472;19.744;2024-03-23T05:47:22;43.80;;;21.60;;
50301;SDS011;36550;50.472;19.744;2024-03-23T05:50:06;37.60;;;20.60;;
50301;SDS011;36550;50.472;19.744;2024-03-23T05:52:50;46.10;;;22.50;;
50301;SDS011;36550;50.472;19.744;2024-03-23T05:55:35;39.30;;;21.60;;
50301;SDS011;36550;50.472;19.744;2024-03-23T05:58:19;44.00;;;21.80;;
50301;SDS011;36550;50.472;19.744;2024-03-23T06:01:06;45.90;;;21.80;;
50301;SDS011;36550;50.472;19.744;2024-03-23T06:03:51;41.50;;;20.00;;
50301;SDS011;36550;50.472;19.744;2024-03-23T06:06:35;38.60;;;20.10;;
50301;SDS011;36550;50.472;19.744;2024-03-23T06:09:19;40.90;;;20.40;;
50301;SDS011;36550;50.472;19.744;2024-03-23T06:12:04;36.60;;;18.70;;
50301;SDS011;36550;50.472;19.744;2024-03-23T06:14:48;38.30;;;19.40;;
50301;SDS011;36550;50.472;19.744;2024-03-23T06:17:33;38.30;;;19.60;;
50301;SDS011;36550;50.472;19.744;2024-03-23T06:20:17;37.10;;;19.00;;
50301;SDS011;36550;50.472;19.744;2024-03-23T06:23:02;40.90;;;19.10;;
50301;SDS011;36550;50.472;19.744;2024-03-23T06:25:47;32.80;;;18.60;;
50301;SDS011;36550;50.472;19.744;2024-03-23T06:28:31;35.20;;;18.10;;
50301;SDS011;36550;50.472;19.744;2024-03-23T06:31:15;34.70;;;18.40;;
50301;SDS011;36550;50.472;19.744;2024-03-23T06:34:00;38.70;;;18.30;;
50301;SDS011;36550;50.472;19.744;2024-03-23T06:36:46;35.00;;;18.50;;
50301;SDS011;36550;50.472;19.744;2024-03-23T06:39:30;31.90;;;16.80;;
50301;SDS011;36550;50.472;19.744;2024-03-23T06:42:14;31.60;;;16.50;;
50301;SDS011;36550;50.472;19.744;2024-03-23T06:44:58;36.30;;;17.90;;
50301;SDS011;36550;50.472;19.744;2024-03-23T06:47:43;35.10;;;17.90;;
50301;SDS011;36550;50.472;19.744;2024-03-23T06:50:27;34.80;;;17.70;;
50301;SDS011;36550;50.472;19.744;2024-03-23T06:53:12;30.30;;;15.80;;
50301;SDS011;36550;50.472;19.744;2024-03-23T06:56:01;28.00;;;16.80;;
50301;SDS011;36550;50.472;19.744;2024-03-23T06:58:45;26.80;;;15.20;;
50301;SDS011;36550;50.472;19.744;2024-03-23T07:01:29;30.10;;;16.60;;
50301;SDS011;36550;50.472;19.744;2024-03-23T07:04:13;28.70;;;16.10;;
50301;SDS011;36550;50.472;19.744;2024-03-23T07:06:58;29.50;;;17.50;;
50301;SDS011;36550;50.472;19.744;2024-03-23T07:09:42;32.90;;;17.20;;
50301;SDS011;36550;50.472;19.744;2024-03-23T07:12:26;33.60;;;17.90;;
50301;SDS011;36550;50.472;19.744;2024-03-23T07:15:10;28.60;;;16.90;;
50301;SDS011;36550;50.472;19.744;2024-03-23T07:17:55;25.60;;;15.00;;
50301;SDS011;36550;50.472;19.744;2024-03-23T07:20:39;26.70;;;15.20;;
50301;SDS011;36550;50.472;19.744;2024-03-23T07:23:23;23.50;;;14.10;;
50301;SDS011;36550;50.472;19.744;2024-03-23T07:26:08;31.30;;;16.40;;
50301;SDS011;36550;50.472;19.744;2024-03-23T07:28:52;31.20;;;17.30;;
50301;SDS011;36550;50.472;19.744;2024-03-23T07:31:36;29.10;;;17.60;;
50301;SDS011;36550;50.472;19.744;2024-03-23T07:34:22;24.90;;;14.40;;
50301;SDS011;36550;50.472;19.744;2024-03-23T07:37:07;24.90;;;14.20;;
50301;SDS011;36550;50.472;19.744;2024-03-23T07:39:51;24.20;;;13.30;;
50301;SDS011;36550;50.472;19.744;2024-03-23T07:42:36;23.90;;;11.80;;
50301;SDS011;36550;50.472;19.744;2024-03-23T07:45:20;21.30;;;12.50;;
50301;SDS011;36550;50.472;19.744;2024-03-23T07:48:04;19.80;;;12.70;;
50301;SDS011;36550;50.472;19.744;2024-03-23T07:53:51;20.00;;;11.70;;
50301;SDS011;36550;50.472;19.744;2024-03-23T07:56:36;16.50;;;11.10;;
50301;SDS011;36550;50.472;19.744;2024-03-23T07:59:20;17.70;;;11.80;;
50301;SDS011;36550;50.472;19.744;2024-03-23T08:02:04;18.40;;;11.30;;
50301;SDS011;36550;50.472;19.744;2024-03-23T08:04:48;18.20;;;11.60;;
50301;SDS011;36550;50.472;19.744;2024-03-23T08:07:32;22.90;;;12.00;;
50301;SDS011;36550;50.472;19.744;2024-03-23T08:10:17;24.00;;;12.70;;
50301;SDS011;36550;50.472;19.744;2024-03-23T08:13:01;20.20;;;12.20;;
50301;SDS011;36550;50.472;19.744;2024-03-23T08:15:45;19.20;;;12.10;;
50301;SDS011;36550;50.472;19.744;2024-03-23T08:18:30;20.30;;;12.00;;
50301;SDS011;36550;50.472;19.744;2024-03-23T08:21:14;20.50;;;12.40;;
50301;SDS011;36550;50.472;19.744;2024-03-23T08:23:58;18.30;;;10.90;;
50301;SDS011;36550;50.472;19.744;2024-03-23T08:26:43;17.10;;;11.60;;
50301;SDS011;36550;50.472;19.744;2024-03-23T08:29:27;18.30;;;11.60;;
50301;SDS011;36550;50.472;19.744;2024-03-23T08:32:11;16.30;;;11.30;;
50301;SDS011;36550;50.472;19.744;2024-03-23T08:34:56;21.00;;;11.90;;
50301;SDS011;36550;50.472;19.744;2024-03-23T08:37:40;16.60;;;10.40;;
50301;SDS011;36550;50.472;19.744;2024-03-23T08:40:24;12.90;;;9.30;;
50301;SDS011;36550;50.472;19.744;2024-03-23T08:43:08;14.70;;;9.50;;
50301;SDS011;36550;50.472;19.744;2024-03-23T08:45:53;19.00;;;10.50;;
50301;SDS011;36550;50.472;19.744;2024-03-23T08:48:44;15.30;;;10.20;;
50301;SDS011;36550;50.472;19.744;2024-03-23T08:51:29;18.90;;;10.80;;
50301;SDS011;36550;50.472;19.744;2024-03-23T08:54:13;13.80;;;9.80;;
50301;SDS011;36550;50.472;19.744;2024-03-23T08:56:59;14.70;;;9.40;;
50301;SDS011;36550;50.472;19.744;2024-03-23T08:59:43;13.60;;;8.70;;
50301;SDS011;36550;50.472;19.744;2024-03-23T09:02:28;14.90;;;9.00;;
50301;SDS011;36550;50.472;19.744;2024-03-23T09:05:12;17.40;;;8.60;;
50301;SDS011;36550;50.472;19.744;2024-03-23T09:07:56;15.40;;;9.00;;
50301;SDS011;36550;50.472;19.744;2024-03-23T09:10:42;12.60;;;8.20;;
50301;SDS011;36550;50.472;19.744;2024-03-23T09:13:26;12.50;;;7.70;;
50301;SDS011;36550;50.472;19.744;2024-03-23T09:16:11;12.30;;;7.40;;
50301;SDS011;36550;50.472;19.744;2024-03-23T09:18:55;11.40;;;6.30;;
50301;SDS011;36550;50.472;19.744;2024-03-23T09:21:39;11.30;;;6.10;;
50301;SDS011;36550;50.472;19.744;2024-03-23T09:24:23;11.40;;;5.90;;
50301;SDS011;36550;50.472;19.744;2024-03-23T09:27:08;9.70;;;5.60;;
50301;SDS011;36550;50.472;19.744;2024-03-23T09:29:52;8.70;;;5.90;;
50301;SDS011;36550;50.472;19.744;2024-03-23T09:32:36;9.90;;;6.30;;
50301;SDS011;36550;50.472;19.744;2024-03-23T09:35:21;10.00;;;6.50;;
50301;SDS011;36550;50.472;19.744;2024-03-23T09:38:05;12.80;;;6.70;;
50301;SDS011;36550;50.472;19.744;2024-03-23T09:43:37;12.50;;;6.60;;
50301;SDS011;36550;50.472;19.744;2024-03-23T09:46:21;9.90;;;6.00;;
50301;SDS011;36550;50.472;19.744;2024-03-23T09:49:08;8.50;;;5.70;;
50301;SDS011;36550;50.472;19.744;2024-03-23T09:51:54;11.90;;;6.00;;
50301;SDS011;36550;50.472;19.744;2024-03-23T09:54:39;10.50;;;6.10;;
50301;SDS011;36550;50.472;19.744;2024-03-23T09:57:24;11.70;;;6.90;;
50301;SDS011;36550;50.472;19.744;2024-03-23T10:00:08;10.90;;;6.10;;
50301;SDS011;36550;50.472;19.744;2024-03-23T10:02:56;10.80;;;6.60;;
50301;SDS011;36550;50.472;19.744;2024-03-23T10:05:47;11.70;;;6.40;;
50301;SDS011;36550;50.472;19.744;2024-03-23T10:08:44;10.10;;;5.90;;
50301;SDS011;36550;50.472;19.744;2024-03-23T10:11:28;9.00;;;5.80;;
50301;SDS011;36550;50.472;19.744;2024-03-23T10:14:14;10.10;;;5.90;;
50301;SDS011;36550;50.472;19.744;2024-03-23T10:20:03;10.80;;;6.10;;
50301;SDS011;36550;50.472;19.744;2024-03-23T10:22:54;8.90;;;6.20;;
50301;SDS011;36550;50.472;19.744;2024-03-23T10:25:40;13.60;;;6.60;;
50301;SDS011;36550;50.472;19.744;2024-03-23T10:28:24;10.50;;;5.90;;
50301;SDS011;36550;50.472;19.744;2024-03-23T10:31:11;12.20;;;6.20;;
50301;SDS011;36550;50.472;19.744;2024-03-23T10:33:55;10.00;;;5.20;;
50301;SDS011;36550;50.472;19.744;2024-03-23T10:36:40;9.90;;;5.30;;
50301;SDS011;36550;50.472;19.744;2024-03-23T10:39:25;8.90;;;5.50;;
50301;SDS011;36550;50.472;19.744;2024-03-23T10:42:10;8.80;;;4.70;;
50301;SDS011;36550;50.472;19.744;2024-03-23T10:44:54;10.50;;;5.30;;
50301;SDS011;36550;50.472;19.744;2024-03-23T10:47:39;6.40;;;4.60;;
50301;SDS011;36550;50.472;19.744;2024-03-23T10:50:24;9.20;;;4.90;;
50301;SDS011;36550;50.472;19.744;2024-03-23T10:53:08;9.00;;;4.50;;
50301;SDS011;36550;50.472;19.744;2024-03-23T10:55:54;7.80;;;4.70;;
50301;SDS011;36550;50.472;19.744;2024-03-23T10:58:41;9.60;;;4.90;;
50301;SDS011;36550;50.472;19.744;2024-03-23T11:01:27;9.00;;;4.80;;
50301;SDS011;36550;50.472;19.744;2024-03-23T11:04:12;7.30;;;4.90;;
50301;SDS011;36550;50.472;19.744;2024-03-23T11:10:24;13.50;;;5.20;;
50301;SDS011;36550;50.472;19.744;2024-03-23T11:13:23;7.70;;;4.20;;
50301;SDS011;36550;50.472;19.744;2024-03-23T11:16:21;7.50;;;3.90;;
50301;SDS011;36550;50.472;19.744;2024-03-23T11:22:37;8.60;;;4.10;;
50301;SDS011;36550;50.472;19.744;2024-03-23T11:25:25;6.90;;;3.90;;
50301;SDS011;36550;50.472;19.744;2024-03-23T11:28:11;11.00;;;4.30;;
50301;SDS011;36550;50.472;19.744;2024-03-23T11:30:56;7.80;;;3.80;;
50301;SDS011;36550;50.472;19.744;2024-03-23T11:33:40;8.20;;;3.90;;
50301;SDS011;36550;50.472;19.744;2024-03-23T11:36:24;8.90;;;5.10;;
50301;SDS011;36550;50.472;19.744;2024-03-23T11:39:18;8.20;;;4.80;;
50301;SDS011;36550;50.472;19.744;2024-03-23T11:42:03;7.40;;;3.70;;
50301;SDS011;36550;50.472;19.744;2024-03-23T11:44:48;5.80;;;3.10;;
50301;SDS011;36550;50.472;19.744;2024-03-23T11:47:32;5.70;;;2.70;;
50301;SDS011;36550;50.472;19.744;2024-03-23T11:50:20;3.90;;;2.10;;
50301;SDS011;36550;50.472;19.744;2024-03-23T11:53:17;6.60;;;2.80;;
50301;SDS011;36550;50.472;19.744;2024-03-23T11:56:02;4.50;;;2.30;;
50301;SDS011;36550;50.472;19.744;2024-03-23T11:58:48;5.00;;;2.20;;
50301;SDS011;36550;50.472;19.744;2024-03-23T12:01:34;4.40;;;2.10;;
50301;SDS011;36550;50.472;19.744;2024-03-23T12:04:27;3.90;;;2.20;;
50301;SDS011;36550;50.472;19.744;2024-03-23T12:07:12;14.10;;;2.60;;
50301;SDS011;36550;50.472;19.744;2024-03-23T12:10:03;3.10;;;1.80;;
50301;SDS011;36550;50.472;19.744;2024-03-23T12:13:01;5.30;;;1.50;;
50301;SDS011;36550;50.472;19.744;2024-03-23T12:15:46;4.10;;;1.70;;
50301;SDS011;36550;50.472;19.744;2024-03-23T12:18:31;3.90;;;1.90;;
50301;SDS011;36550;50.472;19.744;2024-03-23T12:21:16;4.30;;;1.80;;
50301;SDS011;36550;50.472;19.744;2024-03-23T12:24:01;6.20;;;1.80;;
50301;SDS011;36550;50.472;19.744;2024-03-23T12:26:45;3.80;;;1.60;;
50301;SDS011;36550;50.472;19.744;2024-03-23T12:29:33;5.80;;;1.60;;
50301;SDS011;36550;50.472;19.744;2024-03-23T12:32:18;3.70;;;1.60;;
50301;SDS011;36550;50.472;19.744;2024-03-23T12:35:02;3.40;;;1.90;;
50301;SDS011;36550;50.472;19.744;2024-03-23T12:37:47;3.40;;;1.80;;
50301;SDS011;36550;50.472;19.744;2024-03-23T12:40:31;4.00;;;1.60;;
50301;SDS011;36550;50.472;19.744;2024-03-23T12:43:15;4.20;;;1.70;;
50301;SDS011;36550;50.472;19.744;2024-03-23T12:46:01;2.80;;;1.60;;
50301;SDS011;36550;50.472;19.744;2024-03-23T12:48:45;3.30;;;2.00;;
50301;SDS011;36550;50.472;19.744;2024-03-23T12:51:30;3.80;;;1.70;;
50301;SDS011;36550;50.472;19.744;2024-03-23T12:54:14;3.40;;;1.50;;
50301;SDS011;36550;50.472;19.744;2024-03-23T12:56:59;2.90;;;1.60;;
50301;SDS011;36550;50.472;19.744;2024-03-23T12:59:43;4.20;;;1.70;;
50301;SDS011;36550;50.472;19.744;2024-03-23T13:02:27;3.60;;;1.70;;
50301;SDS011;36550;50.472;19.744;2024-03-23T13:05:12;2.70;;;1.50;;
50301;SDS011;36550;50.472;19.744;2024-03-23T13:07:56;7.40;;;1.80;;
50301;SDS011;36550;50.472;19.744;2024-03-23T13:10:40;3.10;;;1.50;;
50301;SDS011;36550;50.472;19.744;2024-03-23T13:13:24;3.80;;;1.60;;
50301;SDS011;36550;50.472;19.744;2024-03-23T13:16:09;4.20;;;1.60;;
50301;SDS011;36550;50.472;19.744;2024-03-23T13:18:53;2.90;;;1.60;;
50301;SDS011;36550;50.472;19.744;2024-03-23T13:21:37;5.90;;;2.40;;
50301;SDS011;36550;50.472;19.744;2024-03-23T13:24:22;2.70;;;1.40;;
50301;SDS011;36550;50.472;19.744;2024-03-23T13:27:08;2.50;;;1.50;;
50301;SDS011;36550;50.472;19.744;2024-03-23T13:29:53;2.70;;;1.80;;
50301;SDS011;36550;50.472;19.744;2024-03-23T13:32:37;5.00;;;1.80;;
50301;SDS011;36550;50.472;19.744;2024-03-23T13:35:22;6.90;;;1.60;;
50301;SDS011;36550;50.472;19.744;2024-03-23T13:38:06;6.90;;;1.40;;
50301;SDS011;36550;50.472;19.744;2024-03-23T13:43:34;4.20;;;1.50;;
50301;SDS011;36550;50.472;19.744;2024-03-23T13:46:19;4.90;;;1.60;;
50301;SDS011;36550;50.472;19.744;2024-03-23T13:49:03;3.70;;;1.60;;
50301;SDS011;36550;50.472;19.744;2024-03-23T13:51:47;2.90;;;1.50;;
50301;SDS011;36550;50.472;19.744;2024-03-23T13:54:31;3.50;;;1.80;;
50301;SDS011;36550;50.472;19.744;2024-03-23T13:57:16;7.70;;;1.80;;
50301;SDS011;36550;50.472;19.744;2024-03-23T14:00:01;5.20;;;1.80;;
50301;SDS011;36550;50.472;19.744;2024-03-23T14:02:45;7.60;;;1.80;;
50301;SDS011;36550;50.472;19.744;2024-03-23T14:05:29;5.90;;;1.80;;
50301;SDS011;36550;50.472;19.744;2024-03-23T14:08:13;4.40;;;1.90;;
50301;SDS011;36550;50.472;19.744;2024-03-23T14:10:58;6.40;;;1.80;;
50301;SDS011;36550;50.472;19.744;2024-03-23T14:13:42;4.40;;;1.50;;
50301;SDS011;36550;50.472;19.744;2024-03-23T14:16:26;4.30;;;1.70;;
50301;SDS011;36550;50.472;19.744;2024-03-23T14:19:10;5.70;;;2.50;;
50301;SDS011;36550;50.472;19.744;2024-03-23T14:21:54;9.10;;;2.20;;
50301;SDS011;36550;50.472;19.744;2024-03-23T14:24:38;7.30;;;1.90;;
50301;SDS011;36550;50.472;19.744;2024-03-23T14:27:23;2.60;;;1.60;;
50301;SDS011;36550;50.472;19.744;2024-03-23T14:30:07;3.50;;;1.30;;
50301;SDS011;36550;50.472;19.744;2024-03-23T14:32:52;3.70;;;1.70;;
50301;SDS011;36550;50.472;19.744;2024-03-23T14:35:37;4.00;;;1.50;;
50301;SDS011;36550;50.472;19.744;2024-03-23T14:38:21;5.40;;;1.50;;
50301;SDS011;36550;50.472;19.744;2024-03-23T14:41:06;5.70;;;2.00;;
50301;SDS011;36550;50.472;19.744;2024-03-23T14:43:50;5.30;;;2.30;;
50301;SDS011;36550;50.472;19.744;2024-03-23T14:46:37;5.00;;;1.90;;
50301;SDS011;36550;50.472;19.744;2024-03-23T14:49:21;5.50;;;2.60;;
50301;SDS011;36550;50.472;19.744;2024-03-23T14:52:05;9.10;;;3.40;;
50301;SDS011;36550;50.472;19.744;2024-03-23T14:54:51;6.80;;;3.50;;
50301;SDS011;36550;50.472;19.744;2024-03-23T14:57:35;8.50;;;3.80;;
50301;SDS011;36550;50.472;19.744;2024-03-23T15:00:19;12.40;;;4.80;;
50301;SDS011;36550;50.472;19.744;2024-03-23T15:03:03;13.60;;;7.90;;
50301;SDS011;36550;50.472;19.744;2024-03-23T15:05:53;16.70;;;10.20;;
50301;SDS011;36550;50.472;19.744;2024-03-23T15:08:39;13.40;;;9.10;;
50301;SDS011;36550;50.472;19.744;2024-03-23T15:11:24;16.30;;;9.70;;
50301;SDS011;36550;50.472;19.744;2024-03-23T15:14:08;17.90;;;6.70;;
50301;SDS011;36550;50.472;19.744;2024-03-23T15:16:52;10.70;;;5.30;;
50301;SDS011;36550;50.472;19.744;2024-03-23T15:19:37;30.00;;;12.80;;
50301;SDS011;36550;50.472;19.744;2024-03-23T15:22:21;21.50;;;10.50;;
50301;SDS011;36550;50.472;19.744;2024-03-23T15:25:06;12.50;;;5.40;;
50301;SDS011;36550;50.472;19.744;2024-03-23T15:27:51;12.70;;;5.30;;
50301;SDS011;36550;50.472;19.744;2024-03-23T15:30:35;5.40;;;1.90;;
50301;SDS011;36550;50.472;19.744;2024-03-23T15:33:19;2.30;;;1.20;;
50301;SDS011;36550;50.472;19.744;2024-03-23T15:36:04;3.60;;;1.10;;
50301;SDS011;36550;50.472;19.744;2024-03-23T15:38:49;2.90;;;1.50;;
50301;SDS011;36550;50.472;19.744;2024-03-23T15:41:33;3.20;;;1.50;;
50301;SDS011;36550;50.472;19.744;2024-03-23T15:47:03;5.00;;;1.70;;
50301;SDS011;36550;50.472;19.744;2024-03-23T15:49:47;2.30;;;1.40;;
50301;SDS011;36550;50.472;19.744;2024-03-23T15:52:32;3.60;;;1.50;;
50301;SDS011;36550;50.472;19.744;2024-03-23T15:55:16;3.50;;;1.40;;
50301;SDS011;36550;50.472;19.744;2024-03-23T15:58:00;4.10;;;1.50;;
50301;SDS011;36550;50.472;19.744;2024-03-23T16:00:45;3.80;;;1.40;;
50301;SDS011;36550;50.472;19.744;2024-03-23T16:03:29;3.20;;;1.50;;
50301;SDS011;36550;50.472;19.744;2024-03-23T16:06:16;4.70;;;1.40;;
50301;SDS011;36550;50.472;19.744;2024-03-23T16:09:01;3.10;;;1.40;;
50301;SDS011;36550;50.472;19.744;2024-03-23T16:11:45;3.90;;;1.90;;
50301;SDS011;36550;50.472;19.744;2024-03-23T16:14:29;5.20;;;2.70;;
50301;SDS011;36550;50.472;19.744;2024-03-23T16:17:13;6.40;;;3.10;;
50301;SDS011;36550;50.472;19.744;2024-03-23T16:19:57;6.90;;;3.00;;
50301;SDS011;36550;50.472;19.744;2024-03-23T16:22:42;7.80;;;3.40;;
50301;SDS011;36550;50.472;19.744;2024-03-23T16:25:26;7.20;;;3.60;;
50301;SDS011;36550;50.472;19.744;2024-03-23T16:28:11;6.50;;;3.30;;
50301;SDS011;36550;50.472;19.744;2024-03-23T16:31:02;8.10;;;2.80;;
50301;SDS011;36550;50.472;19.744;2024-03-23T16:33:49;6.70;;;2.60;;
50301;SDS011;36550;50.472;19.744;2024-03-23T16:36:35;5.90;;;2.80;;
50301;SDS011;36550;50.472;19.744;2024-03-23T16:39:19;8.30;;;2.90;;
50301;SDS011;36550;50.472;19.744;2024-03-23T16:42:03;5.30;;;2.50;;
50301;SDS011;36550;50.472;19.744;2024-03-23T16:44:48;7.10;;;2.60;;
50301;SDS011;36550;50.472;19.744;2024-03-23T16:47:32;6.60;;;3.00;;
50301;SDS011;36550;50.472;19.744;2024-03-23T16:50:18;7.60;;;3.10;;
50301;SDS011;36550;50.472;19.744;2024-03-23T16:53:02;5.40;;;2.90;;
50301;SDS011;36550;50.472;19.744;2024-03-23T16:55:46;8.00;;;3.30;;
50301;SDS011;36550;50.472;19.744;2024-03-23T16:58:31;8.90;;;4.00;;
50301;SDS011;36550;50.472;19.744;2024-03-23T17:01:16;7.80;;;3.40;;
50301;SDS011;36550;50.472;19.744;2024-03-23T17:04:03;9.00;;;3.60;;
50301;SDS011;36550;50.472;19.744;2024-03-23T17:06:47;7.60;;;3.30;;
50301;SDS011;36550;50.472;19.744;2024-03-23T17:09:31;19.70;;;8.90;;
50301;SDS011;36550;50.472;19.744;2024-03-23T17:12:16;25.20;;;11.90;;
50301;SDS011;36550;50.472;19.744;2024-03-23T17:15:04;28.60;;;14.70;;
50301;SDS011;36550;50.472;19.744;2024-03-23T17:17:51;22.60;;;11.40;;
50301;SDS011;36550;50.472;19.744;2024-03-23T17:20:37;24.50;;;12.10;;